• Join FlightAware (Why Join?)
  • Login
  • US Flag 
12:22PM EDT


 

Airport Tracker/Info


-or-


 

Live Flight TrackerFlight Track Log ✈ GLA61C ✈ 04-May-2013 ✈ KCEZ - KDEN

Flight Track Log - Related Links

Times and Time Zones

All times are in EDT time to prevent confusion due to time zone crossing. See the GLA61C flight status page for this flight to view local times or setup timezone preferences in your user account.

Time Position Orientation Groundspeed Altitude Reporting Facility
EDT Latitude Longitude Course Direction KTS MPH feet Rate Location/Type
08:40AM 37.3472 -108.5953 48° Northeast 188 216 8,300  Level Denver Center
08:41AM 37.3953 -108.5561 33° Northeast 182 209 10,500 1,920 Climbing Denver Center
08:42AM 37.5990 -108.2117 48° Northeast  Level FlightAware Approximate
08:42AM 37.4311 -108.5081 47° Northeast 187 215 12,200  Level Denver Center
08:43AM 37.6484 -108.1435 48° Northeast  Level FlightAware Approximate
08:43AM 37.4661 -108.4528 51° Northeast 197 227 14,000  Level Denver Center
08:44AM 37.6978 -108.0752 48° Northeast  Level FlightAware Approximate
08:44AM 37.5097 -108.3886 49° Northeast 208 239 15,800  Level Denver Center
08:45AM 37.7472 -108.0068 48° Northeast  Level FlightAware Approximate
08:45AM 37.5483 -108.3325 49° Northeast 217 250 17,200  Level Denver Center
08:46AM 37.5914 -108.2692 49° Northeast 237 273 18,500 1,320 Climbing Denver Center
08:47AM 37.6425 -108.1958 49° Northeast 248 285 19,900 1,260 Climbing Denver Center
08:48AM 37.6853 -108.1294 51° Northeast 252 290 21,100 960 Climbing Denver Center
08:49AM 37.7319 -108.0644 48° Northeast 258 297 21,900 780 Climbing Denver Center
08:50AM 37.7858 -107.9844 50° Northeast 265 305 22,800 780 Climbing Denver Center
08:51AM 37.8314 -107.9114 52° Northeast 274 315 23,500 600 Climbing Denver Center
08:52AM 37.8797 -107.8408 49° Northeast 276 318 24,100 540 Climbing Denver Center
08:53AM 37.9353 -107.7550 51° Northeast 281 323 24,700 360 Climbing Denver Center
08:54AM 37.9844 -107.6764 52° Northeast 291 335 24,900 60 Climbing Denver Center
08:55AM 38.0367 -107.6017 48° Northeast 296 341 24,900  Level Denver Center
08:56AM 38.0914 -107.5236 48° Northeast 301 346 25,000  Climbing Denver Center
08:57AM 38.1564 -107.4378 46° Northeast 303 349 25,000 -60 Level Denver Center
08:58AM 38.2128 -107.3678 44° Northeast 298 343 24,900 -60 Descending Denver Center
08:59AM 38.2678 -107.2967 45° Northeast 295 339 24,900  Level Denver Center
09:00AM 38.3258 -107.2042 51° Northeast 300 345 24,900  Level Denver Center
09:01AM 38.3839 -107.1275 46° Northeast 294 338 25,000  Climbing Denver Center
09:02AM 38.4442 -107.0575 42° Northeast 293 337 24,900 -60 Descending Denver Center
09:03AM 38.4764 -106.9842 61° Northeast 295 339 24,900  Level Denver Center
09:04AM 38.5114 -106.8644 69° East 301 346 24,900  Level Denver Center
09:05AM 38.5436 -106.7653 67° East 302 348 24,900  Level Denver Center
09:06AM 38.5747 -106.6664 68° East 301 346 25,000  Climbing Denver Center
09:07AM 38.6064 -106.5678 68° East 301 346 25,000 -60 Level Denver Center
09:08AM 38.6358 -106.4689 69° East 299 344 24,900 -60 Descending Denver Center
09:09AM 38.6678 -106.3703 67° East 302 348 24,900  Level Denver Center
09:10AM 38.6997 -106.2742 67° East 296 341 24,900  Level Denver Center
09:11AM 38.7403 -106.1667 64° Northeast 295 339 24,900  Level Denver Center
09:12AM 38.7839 -106.0794 57° Northeast 293 337 24,900  Level Denver Center
09:13AM 38.8286 -105.9986 55° Northeast 290 334 25,000  Climbing Denver Center
09:14AM 38.8758 -105.9183 53° Northeast 293 337 25,000 -240 Level Denver Center
09:15AM 38.9275 -105.8228 55° Northeast 292 336 24,600 -840 Descending Denver Center
09:16AM 38.9736 -105.7397 54° Northeast 296 341 23,400 -1,200 Descending Denver Center
09:17AM 39.0236 -105.6578 52° Northeast 301 346 22,200 -1,560 Descending Denver Center
09:18AM 39.0844 -105.5722 47° Northeast 292 336 20,300 -1,680 Descending Denver Center
09:19AM 39.1364 -105.5011 47° Northeast 287 330 18,800 -1,560 Descending Denver Center
09:20AM 39.1897 -105.4261 47° Northeast 281 323 17,200 -1,260 Descending Denver Center
09:21AM 39.2428 -105.3556 46° Northeast 274 315 16,300 -600 Descending Denver Center
09:22AM 39.2958 -105.2703 51° Northeast 282 325 16,000 -180 Descending Denver Center
09:23AM 39.3522 -105.2000 44° Northeast 285 328 16,000 -600 Level Denver Center
09:24AM 39.4125 -105.1344 40° Northeast 284 327 14,900 -1,140 Descending Denver Center
09:25AM 39.4783 -105.0797 33° Northeast 284 327 13,800 -960 Descending Denver Center
09:26AM 39.5417 -105.0214 35° Northeast 279 321 13,000 -420 Descending Denver Center
09:27AM 39.6044 -104.9625 36° Northeast 280 322 13,000  Level Denver Center
09:28AM 39.6783 -104.8842 39° Northeast 280 322 13,000 -300 Level Denver Center
09:29AM 39.7444 -104.8344 30° Northeast 270 311 12,500 -660 Descending Denver Center
09:30AM 39.8225 -104.8414 356° North 276 318 11,700 -780 Descending Denver Center
09:31AM 39.8992 -104.8483 356° North 274 315 11,000 -840 Descending Denver Center
09:32AM 39.9731 -104.8556 356° North 265 305 10,000 -1,200 Descending Denver Center
09:33AM 40.0147 -104.7906 50° Northeast 255 293 8,600 -1,320 Descending Denver Center
09:34AM 40.0039 -104.7025 99° East 248 285 7,400 -1,080 Descending Denver Center
09:35AM 39.9458 -104.6867 168° South 226 260 6,500 -900 Descending Denver Center
09:36AM 39.9031 -104.6867 180° South 160 184 5,600 -900 Descending Denver Center
09:38AM 39.8617 -104.6732 130° Southeast  Level Estimated
09:45AM 39.8617 -104.6732 130° Southeast  Level Estimated
09:46AM 39.8617 -104.6732 130° Southeast  Level Estimated